Time;durP1;ratioP1;P1;durP2;ratioP2;P2;SDS_P1;SDS_P2;PMS_P1;PMS_P2;Temp;Humidity;BMP_temperature;BMP_pressure;BME280_temperature;BME280_humidity;BME280_pressure;Samples;Min_cycle;Max_cycle;Signal;HPM_P1;HPM_P2
2021/07/16 00:00:58;;;;;;;10.90;5.97;;;;;;;14.94;100.00;98757.56;5055564;28;20029;-72
2021/07/16 00:03:24;;;;;;;30.48;7.47;;;;;;;15.00;100.00;98772.97;5054428;28;20021;-72
2021/07/16 00:05:49;;;;;;;42.10;6.55;;;;;;;14.99;100.00;98782.22;5055353;28;20078;-72
2021/07/16 00:08:14;;;;;;;33.10;6.22;;;;;;;14.96;100.00;98781.84;5054903;28;20029;-72
2021/07/16 00:10:41;;;;;;;25.17;6.05;;;;;;;15.00;100.00;98781.16;5053542;28;20028;-72
2021/07/16 00:13:07;;;;;;;29.92;7.07;;;;;;;15.03;100.00;98791.59;5054403;28;20055;-72
2021/07/16 00:15:32;;;;;;;69.68;8.27;;;;;;;14.93;100.00;98768.69;5036245;28;20494;-72
2021/07/16 00:17:57;;;;;;;63.85;6.63;;;;;;;14.98;100.00;98774.28;5036614;28;20036;-72
2021/07/16 00:20:23;;;;;;;46.90;7.50;;;;;;;15.02;100.00;98792.66;5054500;28;20031;-72
2021/07/16 00:22:48;;;;;;;31.98;6.80;;;;;;;14.91;100.00;98774.41;5053978;28;20059;-72
2021/07/16 00:25:14;;;;;;;24.10;6.55;;;;;;;15.01;100.00;98784.72;5053794;28;20025;-72
2021/07/16 00:27:39;;;;;;;47.30;7.65;;;;;;;14.80;100.00;98758.81;5051068;28;20155;-72
2021/07/16 00:30:07;;;;;;;35.80;6.28;;;;;;;14.96;100.00;98788.16;5035751;28;20029;-72
2021/07/16 00:32:32;;;;;;;38.42;6.65;;;;;;;14.87;100.00;98786.81;5036353;28;20025;-72
2021/07/16 00:34:57;;;;;;;19.75;5.70;;;;;;;14.99;100.00;98792.31;5054981;28;20056;-72
2021/07/16 00:37:23;;;;;;;22.17;5.45;;;;;;;15.08;100.00;98794.44;5053530;28;20029;-72
2021/07/16 00:39:48;;;;;;;14.07;5.75;;;;;;;15.12;100.00;98801.09;5053828;28;20118;-72
2021/07/16 00:42:13;;;;;;;22.88;4.60;;;;;;;14.96;100.00;98785.44;5054191;28;20103;-72
2021/07/16 00:44:39;;;;;;;50.70;5.00;;;;;;;14.81;100.00;98785.84;5054462;28;20063;-72
2021/07/16 00:47:06;;;;;;;27.90;4.63;;;;;;;14.90;100.00;98800.78;5041163;28;20033;-72
2021/07/16 00:49:32;;;;;;;20.83;5.13;;;;;;;14.94;100.00;98806.63;5025485;28;20029;-72
2021/07/16 00:51:57;;;;;;;25.45;4.63;;;;;;;14.76;100.00;98773.97;5054375;28;20065;-72
2021/07/16 00:54:23;;;;;;;19.60;4.93;;;;;;;14.79;100.00;98766.16;5053042;28;20047;-72
2021/07/16 00:56:48;;;;;;;16.25;4.90;;;;;;;14.82;100.00;98790.22;5053155;28;20431;-72
2021/07/16 00:59:16;;;;;;;34.53;5.15;;;;;;;14.89;100.00;98803.75;5052823;28;20052;-72
2021/07/16 01:01:43;;;;;;;17.95;4.63;;;;;;;14.87;100.00;98800.41;5036379;28;20425;-72
2021/07/16 01:04:09;;;;;;;27.50;6.00;;;;;;;14.74;100.00;98782.38;5054063;28;20383;-72
2021/07/16 01:06:34;;;;;;;16.10;5.68;;;;;;;14.80;100.00;98797.81;5052130;28;20029;-72
2021/07/16 01:08:59;;;;;;;18.65;6.10;;;;;;;14.89;100.00;98795.56;5053560;28;20032;-72
2021/07/16 01:11:25;;;;;;;10.25;5.20;;;;;;;14.83;100.00;98801.97;5052198;28;20025;-72
2021/07/16 01:13:51;;;;;;;12.85;6.03;;;;;;;14.78;100.00;98790.94;5053488;28;20387;-72
2021/07/16 01:16:17;;;;;;;8.32;5.13;;;;;;;14.56;100.00;98764.19;5050076;28;20045;-72
2021/07/16 01:18:42;;;;;;;8.70;4.72;;;;;;;14.72;100.00;98798.09;5034121;28;20139;-72
2021/07/16 01:21:08;;;;;;;9.65;4.57;;;;;;;14.62;100.00;98803.28;5023253;28;20031;-72
2021/07/16 01:23:33;;;;;;;11.65;4.70;;;;;;;14.56;100.00;98798.75;5034564;28;20021;-72
2021/07/16 01:25:59;;;;;;;11.90;3.63;;;;;;;14.37;100.00;98785.13;5052062;28;20108;-72
2021/07/16 01:28:24;;;;;;;11.27;3.58;;;;;;;14.36;100.00;98793.53;5046566;28;20032;-72
2021/07/16 01:30:53;;;;;;;10.43;3.25;;;;;;;14.38;100.00;98807.72;5053442;28;20025;-72
2021/07/16 01:33:19;;;;;;;4.45;3.20;;;;;;;14.38;100.00;98813.16;5035742;28;20055;-72
2021/07/16 01:35:45;;;;;;;7.75;3.40;;;;;;;14.15;100.00;98797.56;5052374;28;20514;-72
2021/07/16 01:38:10;;;;;;;6.85;3.33;;;;;;;14.27;100.00;98806.59;5053385;28;20033;-72
2021/07/16 01:40:37;;;;;;;5.10;3.45;;;;;;;14.27;100.00;98805.78;5053735;28;20027;-72
2021/07/16 01:43:04;;;;;;;4.57;3.05;;;;;;;14.16;100.00;98810.09;5036798;28;20020;-72
2021/07/16 01:45:34;;;;;;;8.38;2.72;;;;;;;14.02;100.00;98793.09;5052685;28;20029;-72
2021/07/16 01:48:05;;;;;;;3.67;2.80;;;;;;;13.96;100.00;98794.81;5053251;28;20032;-72
2021/07/16 01:50:32;;;;;;;7.80;3.60;;;;;;;14.05;100.00;98808.94;5052574;28;20514;-72
2021/07/16 01:52:58;;;;;;;6.03;2.90;;;;;;;14.00;100.00;98800.63;5052581;28;20560;-72
2021/07/16 01:55:25;;;;;;;6.45;3.13;;;;;;;14.05;100.00;98808.13;5034792;28;20033;-69
2021/07/16 01:57:52;;;;;;;9.43;3.50;;;;;;;14.09;100.00;98807.44;5032843;28;20482;-71
2021/07/16 02:00:24;;;;;;;10.90;4.65;;;;;;;14.07;100.00;98811.44;5053958;28;20029;-72
2021/07/16 02:02:52;;;;;;;16.50;4.57;;;;;;;14.16;100.00;98821.78;5034890;28;20617;-70
2021/07/16 02:05:18;;;;;;;12.60;4.15;;;;;;;14.21;100.00;98813.78;5032632;28;20390;-71
2021/07/16 02:07:50;;;;;;;8.05;3.92;;;;;;;14.38;100.00;98808.59;5036134;28;20025;-72
2021/07/16 02:10:16;;;;;;;7.38;3.95;;;;;;;14.35;100.00;98794.56;5035926;28;20028;-71
2021/07/16 02:12:41;;;;;;;5.50;3.25;;;;;;;14.50;100.00;98816.81;5052220;28;20075;-71
2021/07/16 02:15:13;;;;;;;8.45;3.45;;;;;;;14.38;100.00;98797.69;5052023;28;20029;-70
2021/07/16 02:17:38;;;;;;;6.93;2.65;;;;;;;14.50;100.00;98814.06;5053578;28;20021;-71
2021/07/16 02:20:04;;;;;;;7.18;3.00;;;;;;;14.50;100.00;98799.63;5053617;28;20381;-71
2021/07/16 02:22:30;;;;;;;5.97;2.83;;;;;;;14.44;100.00;98774.16;5051612;28;20036;-71
2021/07/16 02:24:55;;;;;;;8.70;2.55;;;;;;;14.65;100.00;98803.66;5034514;28;20033;-71
2021/07/16 02:27:20;;;;;;;6.13;2.95;;;;;;;14.57;100.00;98781.38;5052115;28;20486;-71
2021/07/16 02:29:46;;;;;;;6.47;3.50;;;;;;;14.52;100.00;98773.03;5052663;28;20032;-71
2021/07/16 02:32:11;;;;;;;6.93;3.53;;;;;;;14.38;100.00;98748.69;5051891;28;20116;-70
2021/07/16 02:34:36;;;;;;;11.05;4.45;;;;;;;14.53;100.00;98771.97;5034839;28;20021;-72
2021/07/16 02:37:02;;;;;;;9.70;3.78;;;;;;;14.54;100.00;98785.38;5052710;28;20033;-71
2021/07/16 02:39:27;;;;;;;13.60;5.50;;;;;;;14.59;100.00;98790.13;5051041;28;20111;-71
2021/07/16 02:41:52;;;;;;;15.75;5.85;;;;;;;14.63;100.00;98800.31;5051954;28;20053;-74
2021/07/16 02:44:17;;;;;;;8.57;3.70;;;;;;;14.56;100.00;98796.84;5052090;28;20458;-71
2021/07/16 02:46:43;;;;;;;11.20;4.07;;;;;;;14.61;100.00;98797.00;5034728;28;20024;-72
2021/07/16 02:49:08;;;;;;;6.45;2.70;;;;;;;14.51;100.00;98791.22;5034656;28;20028;-72
2021/07/16 02:51:36;;;;;;;9.30;2.58;;;;;;;14.56;100.00;98810.47;5049924;28;20398;-71
2021/07/16 02:54:02;;;;;;;3.90;2.58;;;;;;;14.62;100.00;98820.47;5026536;28;20025;-71
2021/07/16 02:56:27;;;;;;;6.43;2.40;;;;;;;14.56;100.00;98805.00;5023305;28;20040;-72
2021/07/16 02:58:52;;;;;;;8.93;2.38;;;;;;;14.56;100.00;98823.25;5053009;28;20028;-72
2021/07/16 03:01:17;;;;;;;5.50;2.13;;;;;;;14.45;100.00;98794.88;5033050;28;20081;-71
2021/07/16 03:03:43;;;;;;;4.63;2.40;;;;;;;14.56;99.69;98821.34;5034727;28;20721;-71
2021/07/16 03:06:08;;;;;;;3.80;2.55;;;;;;;14.63;100.00;98837.63;5052648;28;20039;-71
2021/07/16 03:08:33;;;;;;;4.43;2.42;;;;;;;14.72;100.00;98833.50;5035099;28;20501;-71
2021/07/16 03:10:59;;;;;;;9.30;2.70;;;;;;;14.72;100.00;98840.84;5033990;28;20028;-71
2021/07/16 03:13:24;;;;;;;8.93;3.33;;;;;;;14.73;100.00;98835.19;5031685;28;20017;-71
2021/07/16 03:15:49;;;;;;;11.15;5.25;;;;;;;14.60;100.00;98822.56;5034051;28;20106;-72
2021/07/16 03:18:16;;;;;;;14.63;8.43;;;;;;;14.63;100.00;98833.00;5052582;28;20496;-71
2021/07/16 03:20:45;;;;;;;25.92;11.13;;;;;;;14.69;100.00;98837.50;5052490;28;20098;-72
2021/07/16 03:23:12;;;;;;;18.92;10.18;;;;;;;14.73;100.00;98840.63;5051957;28;20464;-72
2021/07/16 03:25:38;;;;;;;22.90;12.50;;;;;;;14.69;100.00;98829.34;5052194;28;20024;-71
2021/07/16 03:28:06;;;;;;;23.10;12.95;;;;;;;14.71;100.00;98836.47;5050553;28;20025;-72
2021/07/16 03:30:32;;;;;;;25.60;13.30;;;;;;;14.77;100.00;98835.53;5050963;28;20029;-72
2021/07/16 03:32:59;;;;;;;33.38;16.33;;;;;;;14.79;100.00;98836.97;5032738;28;20025;-72
2021/07/16 03:35:25;;;;;;;28.88;11.80;;;;;;;14.86;100.00;98845.06;5052084;28;20056;-72
2021/07/16 03:37:52;;;;;;;24.45;12.40;;;;;;;14.94;100.00;98849.38;5051898;28;20029;-71
2021/07/16 03:40:19;;;;;;;23.52;11.88;;;;;;;14.78;100.00;98812.72;5050907;28;20028;-72
2021/07/16 03:42:45;;;;;;;29.05;11.68;;;;;;;14.85;100.00;98835.22;5050222;28;20108;-71
2021/07/16 03:45:13;;;;;;;37.35;13.38;;;;;;;14.76;100.00;98820.28;5051396;28;20098;-71
2021/07/16 03:47:39;;;;;;;23.90;11.05;;;;;;;14.86;100.00;98837.72;5023781;28;20438;-72
2021/07/16 03:50:05;;;;;;;33.30;14.27;;;;;;;14.83;100.00;98815.59;5038511;28;20021;-71
2021/07/16 03:52:31;;;;;;;31.00;14.23;;;;;;;15.03;100.00;98837.91;5032812;28;20106;-70
2021/07/16 03:54:56;;;;;;;29.90;12.85;;;;;;;15.00;100.00;98835.66;5051217;28;20673;-72
2021/07/16 03:57:21;;;;;;;39.47;14.82;;;;;;;14.95;100.00;98829.22;5032772;28;20108;-72
2021/07/16 03:59:47;;;;;;;34.42;14.25;;;;;;;15.05;100.00;98833.06;5051643;28;20017;-72
2021/07/16 04:02:13;;;;;;;36.03;14.32;;;;;;;15.18;100.00;98833.94;5050666;28;20433;-72
2021/07/16 04:04:38;;;;;;;26.33;9.75;;;;;;;15.19;100.00;98821.97;5051466;28;20059;-72
2021/07/16 04:07:05;;;;;;;26.08;10.55;;;;;;;15.26;100.00;98820.81;5049856;28;20449;-71
2021/07/16 04:09:32;;;;;;;27.67;11.55;;;;;;;15.32;100.00;98840.84;5051107;28;20075;-72
2021/07/16 04:12:11;;;;;;;22.30;10.27;;;;;;;15.31;100.00;98840.00;5051261;28;20029;-72
2021/07/16 04:14:40;;;;;;;26.55;10.73;;;;;;;15.35;100.00;98829.47;5051151;28;20036;-72
2021/07/16 04:17:11;;;;;;;24.38;10.20;;;;;;;15.51;100.00;98839.72;5050836;28;20506;-72
2021/07/16 04:19:38;;;;;;;37.38;10.13;;;;;;;15.50;100.00;98829.84;5031711;28;20479;-72
2021/07/16 04:22:04;;;;;;;25.92;10.50;;;;;;;15.63;100.00;98847.06;5023932;28;20057;-72
2021/07/16 04:24:30;;;;;;;26.48;10.15;;;;;;;15.64;100.00;98826.91;5036783;28;20021;-71
2021/07/16 04:26:55;;;;;;;16.75;9.82;;;;;;;15.76;100.00;98835.97;5036120;28;20095;-72
2021/07/16 04:29:21;;;;;;;18.05;9.70;;;;;;;15.75;100.00;98832.41;5055080;28;20394;-72
2021/07/16 04:31:46;;;;;;;20.85;9.52;;;;;;;15.64;100.00;98829.63;5054746;28;20100;-71
2021/07/16 04:34:12;;;;;;;16.63;8.52;;;;;;;15.74;100.00;98843.53;5046331;28;20086;-72
2021/07/16 04:36:37;;;;;;;10.65;6.93;;;;;;;15.69;100.00;98827.06;5035309;28;20091;-72
2021/07/16 04:39:03;;;;;;;12.25;7.65;;;;;;;15.83;100.00;98857.69;5054651;28;20463;-72
2021/07/16 04:41:29;;;;;;;12.05;6.60;;;;;;;15.86;100.00;98866.22;5053889;28;20036;-69
2021/07/16 04:43:56;;;;;;;25.27;8.25;;;;;;;15.79;100.00;98851.84;5050306;28;20052;-72
2021/07/16 04:46:22;;;;;;;11.23;6.97;;;;;;;15.97;100.00;98854.47;5052925;28;20024;-72
2021/07/16 04:48:47;;;;;;;13.95;7.75;;;;;;;16.11;99.23;98855.09;5033359;28;20071;-72
2021/07/16 04:51:26;;;;;;;15.05;7.30;;;;;;;16.30;97.44;98850.31;5045403;28;20395;-74
2021/07/16 04:53:53;;;;;;;9.57;6.10;;;;;;;16.43;96.75;98876.53;5030604;28;20017;-74
2021/07/16 04:56:18;;;;;;;11.23;6.90;;;;;;;16.38;96.88;98855.41;5036329;28;20032;-75
2021/07/16 04:58:44;;;;;;;9.10;6.28;;;;;;;16.43;96.84;98858.25;5035489;28;20036;-73
2021/07/16 05:01:09;;;;;;;20.83;7.28;;;;;;;16.53;96.84;98867.72;5023821;28;20025;-75
2021/07/16 05:03:34;;;;;;;10.90;6.80;;;;;;;16.52;96.23;98844.22;5053971;28;20662;-73
2021/07/16 05:06:00;;;;;;;13.85;6.93;;;;;;;16.72;95.29;98861.03;5046540;28;20029;-72
2021/07/16 05:08:25;;;;;;;11.57;7.28;;;;;;;16.64;95.13;98847.75;5027190;28;20395;-72
2021/07/16 05:10:50;;;;;;;10.38;7.03;;;;;;;16.76;93.67;98839.50;5036758;28;20021;-73
2021/07/16 05:13:15;;;;;;;11.43;6.82;;;;;;;17.26;91.46;98875.22;5040472;28;20088;-77
2021/07/16 05:15:41;;;;;;;11.10;6.80;;;;;;;17.65;90.98;98883.56;5044452;28;20027;-71
2021/07/16 05:18:06;;;;;;;12.40;6.88;;;;;;;17.93;89.21;98866.28;5054070;28;20033;-71
2021/07/16 05:20:31;;;;;;;10.05;5.68;;;;;;;18.25;86.99;98878.53;5054266;28;20025;-74
2021/07/16 05:22:57;;;;;;;11.70;6.35;;;;;;;18.21;85.29;98886.44;5034808;28;20021;-71
2021/07/16 05:25:23;;;;;;;10.30;6.50;;;;;;;17.84;87.14;98884.22;5032358;28;20498;-73
2021/07/16 05:27:48;;;;;;;9.60;6.38;;;;;;;17.59;87.63;98881.00;5035616;28;20032;-73
2021/07/16 05:30:15;;;;;;;8.68;6.32;;;;;;;17.39;88.61;98865.88;5054097;28;20021;-72
2021/07/16 05:32:41;;;;;;;9.10;6.75;;;;;;;17.27;90.04;98889.75;5052162;28;20108;-72
2021/07/16 05:35:06;;;;;;;8.77;6.18;;;;;;;17.07;91.13;98880.06;5045515;28;20108;-71
2021/07/16 05:37:32;;;;;;;9.70;6.38;;;;;;;17.05;92.06;98881.38;5049440;28;20091;-70
2021/07/16 05:39:57;;;;;;;9.07;6.15;;;;;;;17.07;92.75;98890.16;5043317;28;20021;-71
2021/07/16 05:42:22;;;;;;;11.45;7.28;;;;;;;16.92;92.24;98887.13;5034525;28;20021;-69
2021/07/16 05:44:48;;;;;;;9.77;6.22;;;;;;;16.91;92.43;98882.75;5054138;28;20060;-70
2021/07/16 05:47:13;;;;;;;11.40;6.75;;;;;;;16.97;91.92;98870.84;5052494;28;20136;-70
2021/07/16 05:49:38;;;;;;;9.95;6.55;;;;;;;17.18;92.03;98897.50;5053041;28;20032;-69
2021/07/16 05:52:04;;;;;;;11.23;7.47;;;;;;;17.32;90.93;98887.09;5039132;28;20029;-70
2021/07/16 05:54:31;;;;;;;11.68;6.95;;;;;;;17.40;89.76;98888.63;5050339;28;20137;-69
2021/07/16 05:56:56;;;;;;;9.90;7.25;;;;;;;17.56;88.91;98906.13;5024254;28;20104;-71
2021/07/16 05:59:21;;;;;;;12.18;7.65;;;;;;;17.73;89.00;98910.53;5040674;28;20401;-70
2021/07/16 06:01:47;;;;;;;13.38;8.00;;;;;;;17.74;87.46;98898.53;5052799;28;20536;-69
2021/07/16 06:04:12;;;;;;;11.02;7.75;;;;;;;17.63;88.44;98913.13;5033723;28;20020;-70
2021/07/16 06:06:38;;;;;;;10.43;8.07;;;;;;;17.66;89.02;98917.25;5034464;28;20028;-70
2021/07/16 06:09:05;;;;;;;10.20;7.07;;;;;;;17.67;88.72;98910.69;5052487;28;20021;-70
2021/07/16 06:11:32;;;;;;;12.60;8.32;;;;;;;17.84;89.18;98927.16;5030815;28;20461;-68
2021/07/16 06:13:57;;;;;;;11.18;8.00;;;;;;;17.90;87.58;98910.59;5040782;28;20036;-70
2021/07/16 06:16:23;;;;;;;11.23;7.75;;;;;;;17.96;88.24;98927.91;5042698;28;20028;-68
2021/07/16 06:18:48;;;;;;;9.52;7.30;;;;;;;18.26;86.29;98924.00;5046274;28;20486;-70
2021/07/16 06:21:13;;;;;;;11.98;7.72;;;;;;;18.23;85.16;98906.16;5040811;28;20032;-70
2021/07/16 06:23:39;;;;;;;9.32;7.38;;;;;;;18.36;84.77;98908.53;5040414;28;20040;-70
2021/07/16 06:26:04;;;;;;;9.68;7.45;;;;;;;18.51;84.61;98929.88;5042697;28;20032;-70
2021/07/16 06:28:29;;;;;;;9.52;7.20;;;;;;;18.80;82.51;98922.34;5029811;28;20116;-69
2021/07/16 06:30:55;;;;;;;10.02;6.80;;;;;;;19.14;78.88;98927.69;5029483;28;20033;-71
2021/07/16 06:33:20;;;;;;;11.30;6.75;;;;;;;19.23;78.99;98919.84;5041424;28;20056;-69
2021/07/16 06:35:46;;;;;;;7.47;6.07;;;;;;;19.18;79.58;98925.28;5041427;28;20070;-70
2021/07/16 06:38:12;;;;;;;8.80;6.32;;;;;;;19.21;80.34;98911.06;5045662;28;20029;-69
2021/07/16 06:40:37;;;;;;;8.10;6.50;;;;;;;19.47;80.68;98934.13;5032583;28;20039;-70
2021/07/16 06:43:08;;;;;;;7.20;5.80;;;;;;;19.57;79.42;98922.41;5047107;28;20017;-70
2021/07/16 06:45:34;;;;;;;6.88;5.45;;;;;;;19.71;77.56;98940.16;5051339;28;20070;-67
2021/07/16 06:47:59;;;;;;;9.82;5.07;;;;;;;19.69;78.49;98926.66;5045584;28;20086;-71
2021/07/16 06:50:24;;;;;;;6.80;4.90;;;;;;;19.62;78.39;98936.16;5032825;28;20031;-70
2021/07/16 06:52:49;;;;;;;7.85;6.05;;;;;;;19.54;78.48;98933.91;5033519;28;20186;-72
2021/07/16 06:55:15;;;;;;;10.38;5.78;;;;;;;19.31;80.62;98941.34;5052019;28;20025;-73
2021/07/16 06:57:41;;;;;;;7.07;4.85;;;;;;;19.29;79.45;98943.53;5051710;28;20183;-73
2021/07/16 07:00:08;;;;;;;5.63;4.57;;;;;;;19.41;77.87;98918.66;5030606;28;20025;-73
2021/07/16 07:02:34;;;;;;;4.78;4.05;;;;;;;20.30;74.69;98931.88;5040021;28;20025;-73
2021/07/16 07:04:59;;;;;;;7.75;4.90;;;;;;;21.63;70.28;98932.50;5051268;28;20027;-73
2021/07/16 07:07:24;;;;;;;10.27;5.43;;;;;;;22.69;65.65;98923.69;5046410;28;20462;-73
2021/07/16 07:09:50;;;;;;;5.30;4.55;;;;;;;22.34;66.62;98936.41;5052058;28;20036;-73
2021/07/16 07:12:15;;;;;;;7.07;4.57;;;;;;;21.28;70.63;98943.41;5050042;28;20111;-71
2021/07/16 07:14:40;;;;;;;4.65;3.95;;;;;;;20.70;72.73;98959.91;5031942;28;20033;-73
2021/07/16 07:17:06;;;;;;;6.90;4.97;;;;;;;20.23;74.15;98956.00;5038868;28;20571;-71
2021/07/16 07:19:32;;;;;;;5.80;4.63;;;;;;;19.78;76.22;98973.72;5050673;28;20117;-66
2021/07/16 07:21:58;;;;;;;12.85;6.07;;;;;;;19.32;79.40;98967.69;5038226;28;20044;-66
2021/07/16 07:24:23;;;;;;;8.70;6.75;;;;;;;19.31;78.93;98979.75;5027362;28;20074;-66
2021/07/16 07:26:49;;;;;;;7.88;6.00;;;;;;;19.23;79.63;98982.94;5033561;28;20040;-66
2021/07/16 07:29:15;;;;;;;9.38;6.53;;;;;;;19.15;79.95;98986.13;5049489;28;20626;-66
2021/07/16 07:31:40;;;;;;;8.18;6.60;;;;;;;19.13;79.87;98980.91;5043794;28;20025;-66
2021/07/16 07:34:05;;;;;;;8.25;6.28;;;;;;;19.25;79.70;98991.72;5039248;28;21765;-67
2021/07/16 07:36:31;;;;;;;7.95;6.18;;;;;;;19.44;78.51;98979.38;5041800;28;20052;-70
2021/07/16 07:38:56;;;;;;;8.45;4.93;;;;;;;20.09;76.15;98961.06;5030447;28;20025;-68
2021/07/16 07:41:21;;;;;;;7.78;5.78;;;;;;;23.10;66.33;98978.75;5043809;28;20028;-69
2021/07/16 07:43:47;;;;;;;5.97;5.18;;;;;;;25.92;57.15;98972.41;5040026;28;20029;-69
2021/07/16 07:46:13;;;;;;;5.03;4.22;;;;;;;27.34;53.41;98972.13;5047879;28;20028;-69
2021/07/16 07:48:40;;;;;;;5.72;4.15;;;;;;;26.72;52.00;98964.97;5040450;28;20056;-69
2021/07/16 07:51:05;;;;;;;5.65;4.97;;;;;;;24.06;58.61;98965.56;5040998;28;20030;-70
2021/07/16 07:53:30;;;;;;;5.07;4.35;;;;;;;23.91;60.37;98985.84;5050025;28;20029;-70
2021/07/16 07:55:56;;;;;;;4.38;3.97;;;;;;;23.35;61.43;98981.44;5050711;28;20114;-69
2021/07/16 07:58:21;;;;;;;4.35;3.88;;;;;;;23.21;63.05;98977.59;5050003;28;20037;-69
2021/07/16 08:00:47;;;;;;;5.35;3.78;;;;;;;22.38;63.99;98973.38;5037642;28;20021;-72
2021/07/16 08:03:12;;;;;;;5.28;3.53;;;;;;;22.01;65.24;98965.34;5053242;28;20467;-71
2021/07/16 08:05:37;;;;;;;5.70;4.03;;;;;;;22.43;63.43;98986.31;5054721;28;20106;-69
2021/07/16 08:08:03;;;;;;;5.38;4.72;;;;;;;22.61;62.91;98982.16;5053284;28;20024;-72
2021/07/16 08:10:28;;;;;;;4.88;4.22;;;;;;;22.57;63.74;98990.16;5046770;28;20029;-71
2021/07/16 08:12:55;;;;;;;5.00;4.13;;;;;;;22.65;63.50;98992.34;5042200;28;20402;-71
2021/07/16 08:15:21;;;;;;;5.10;3.92;;;;;;;23.08;62.66;98989.25;5052659;28;20120;-70
2021/07/16 08:17:46;;;;;;;6.35;4.40;;;;;;;24.14;58.92;98994.53;5052524;28;20092;-71
2021/07/16 08:20:12;;;;;;;3.20;2.90;;;;;;;25.52;55.05;98971.84;5035571;28;20020;-73
2021/07/16 08:22:40;;;;;;;3.78;3.38;;;;;;;27.23;50.64;98983.47;5036358;28;20075;-71
2021/07/16 08:25:07;;;;;;;5.68;3.65;;;;;;;28.75;45.88;98985.78;5032562;28;20021;-71
2021/07/16 08:27:33;;;;;;;6.93;3.83;;;;;;;30.87;41.77;98974.31;5043794;28;20044;-69
2021/07/16 08:29:58;;;;;;;4.68;3.60;;;;;;;31.39;40.88;98984.47;5054408;28;20025;-72
2021/07/16 08:32:23;;;;;;;3.40;2.75;;;;;;;30.49;42.97;98977.00;5054771;28;20048;-72
2021/07/16 08:34:49;;;;;;;4.95;2.83;;;;;;;28.67;44.49;98967.06;5054629;28;20077;-73
2021/07/16 08:37:15;;;;;;;3.22;2.72;;;;;;;27.55;48.35;98984.44;5052751;28;20025;-72
2021/07/16 08:39:40;;;;;;;2.70;2.35;;;;;;;26.84;51.82;98976.41;5050195;28;20116;-72
2021/07/16 08:42:07;;;;;;;2.78;2.20;;;;;;;26.06;53.84;98979.94;5041707;28;20099;-72
2021/07/16 08:44:35;;;;;;;4.78;2.83;;;;;;;25.27;55.22;98994.31;5053388;28;20127;-71
2021/07/16 08:47:01;;;;;;;4.53;3.20;;;;;;;25.24;52.45;98992.16;5042706;28;20626;-71
2021/07/16 08:49:27;;;;;;;3.28;2.67;;;;;;;25.74;52.79;98975.97;5052896;28;20021;-75
2021/07/16 08:51:54;;;;;;;4.18;3.20;;;;;;;27.70;48.60;98998.03;5053301;28;20029;-72
2021/07/16 08:54:19;;;;;;;6.38;3.20;;;;;;;27.32;50.55;98978.81;5049824;28;20032;-70
2021/07/16 08:56:45;;;;;;;3.97;2.85;;;;;;;27.25;49.81;98997.88;5050989;28;20834;-75
2021/07/16 08:59:14;;;;;;;4.50;3.10;;;;;;;26.00;54.17;99001.41;5043283;28;20051;-67
2021/07/16 09:01:42;;;;;;;6.45;3.20;;;;;;;25.59;55.71;98974.22;5049442;28;20024;-70
2021/07/16 09:04:08;;;;;;;4.38;2.58;;;;;;;25.07;56.84;98996.19;5051742;28;20028;-72
2021/07/16 09:06:52;;;;;;;8.25;2.80;;;;;;;24.56;57.69;98996.69;5054202;28;20029;-75
2021/07/16 09:09:21;;;;;;;3.60;3.03;;;;;;;23.92;58.96;98986.66;5053438;28;20079;-70
2021/07/16 09:11:49;;;;;;;4.90;3.08;;;;;;;24.05;60.73;98999.81;5047454;28;20021;-70
2021/07/16 09:14:29;;;;;;;3.80;2.67;;;;;;;26.64;53.15;98998.97;5051234;28;20162;-71
2021/07/16 09:17:06;;;;;;;4.00;2.88;;;;;;;25.99;52.02;99003.34;5042409;28;20039;-68
2021/07/16 09:19:37;;;;;;;2.90;2.60;;;;;;;25.33;55.10;99004.19;5035111;28;20111;-71
2021/07/16 09:22:05;;;;;;;5.18;2.72;;;;;;;25.12;56.75;99009.94;5053496;28;20025;-70
2021/07/16 09:24:32;;;;;;;2.97;2.28;;;;;;;24.43;58.30;99002.88;5051588;28;20021;-70
2021/07/16 09:26:58;;;;;;;4.15;1.95;;;;;;;24.01;58.02;98999.59;5034864;28;20032;-70
2021/07/16 09:29:31;;;;;;;4.32;2.40;;;;;;;23.70;58.42;99004.44;5053232;28;20032;-70
2021/07/16 09:32:07;;;;;;;3.08;2.30;;;;;;;23.36;60.59;99007.09;5053186;28;20025;-70
2021/07/16 09:34:35;;;;;;;7.13;2.50;;;;;;;22.96;61.62;99006.94;5034568;28;20075;-70
2021/07/16 09:37:10;;;;;;;2.72;2.47;;;;;;;22.58;63.79;99008.34;5053100;28;20486;-66
2021/07/16 09:39:36;;;;;;;4.65;2.40;;;;;;;22.56;64.80;99010.59;5053777;28;20439;-69
2021/07/16 09:42:03;;;;;;;3.90;2.50;;;;;;;22.49;65.51;98999.00;5053258;28;20042;-69
2021/07/16 09:44:34;;;;;;;4.20;2.80;;;;;;;23.10;64.25;98998.06;5051462;28;20098;-68
2021/07/16 09:47:18;;;;;;;6.32;3.08;;;;;;;23.36;62.38;99002.38;5052823;28;20047;-69
2021/07/16 09:50:02;;;;;;;3.33;2.50;;;;;;;23.29;62.10;99001.88;5052780;28;20032;-69
2021/07/16 09:52:28;;;;;;;6.50;2.60;;;;;;;22.86;61.18;98992.31;5053007;28;20029;-67
2021/07/16 09:55:07;;;;;;;5.38;2.63;;;;;;;23.00;63.87;99003.63;5044538;28;20449;-69
2021/07/16 09:57:46;;;;;;;3.55;2.50;;;;;;;22.88;64.09;99010.25;5052628;28;20024;-69
2021/07/16 10:00:23;;;;;;;2.78;2.47;;;;;;;22.95;63.61;99016.31;5052464;28;20324;-68
2021/07/16 10:02:51;;;;;;;3.53;2.65;;;;;;;22.91;63.33;99011.63;5041090;28;20029;-69
2021/07/16 10:05:17;;;;;;;3.75;2.80;;;;;;;22.67;65.43;99025.19;5052481;28;20024;-68
2021/07/16 10:07:44;;;;;;;3.13;2.60;;;;;;;22.73;67.05;99015.78;5052260;28;20036;-68
2021/07/16 10:10:20;;;;;;;3.28;2.78;;;;;;;22.49;66.79;99012.78;5046984;28;20074;-67
2021/07/16 10:12:47;;;;;;;3.80;3.10;;;;;;;22.61;67.18;99005.06;5049028;28;20766;-68
2021/07/16 10:15:15;;;;;;;5.20;3.35;;;;;;;22.41;70.33;99007.81;5049744;28;20498;-68
2021/07/16 10:17:41;;;;;;;3.53;2.60;;;;;;;22.83;69.79;99013.03;5029735;28;20033;-68
2021/07/16 10:20:14;;;;;;;3.83;2.60;;;;;;;23.05;67.90;99009.94;5049011;28;20426;-68
2021/07/16 10:22:41;;;;;;;3.83;2.75;;;;;;;23.40;65.34;99011.78;5046686;28;20321;-68
2021/07/16 10:25:08;;;;;;;5.03;3.63;;;;;;;24.75;61.56;99009.78;5050198;28;20459;-67
2021/07/16 10:27:34;;;;;;;3.03;2.35;;;;;;;25.82;55.44;99011.31;5042240;28;20042;-68
2021/07/16 10:30:11;;;;;;;4.90;2.50;;;;;;;27.30;54.25;99011.66;5049051;28;20078;-68
2021/07/16 10:32:43;;;;;;;3.70;2.20;;;;;;;28.37;50.05;99007.59;5049457;28;20086;-68
2021/07/16 10:35:21;;;;;;;2.45;2.15;;;;;;;29.71;47.97;99011.25;5049904;28;20543;-68
2021/07/16 10:37:48;;;;;;;3.28;2.17;;;;;;;29.83;48.71;98991.94;5049597;28;20029;-68
2021/07/16 10:40:49;;;;;;;3.30;2.00;;;;;;;29.21;46.19;99003.22;5048881;28;20593;-68
2021/07/16 10:43:23;;;;;;;2.33;2.08;;;;;;;27.82;48.26;99013.38;4951413;28;20038;-68
2021/07/16 10:45:49;;;;;;;2.75;2.30;;;;;;;26.00;54.28;99007.75;5027504;28;20084;-68
2021/07/16 10:48:19;;;;;;;2.90;2.45;;;;;;;25.25;56.90;99015.94;5046357;28;20044;-68
2021/07/16 10:50:52;;;;;;;4.28;1.90;;;;;;;26.79;53.28;99004.25;5042980;28;20036;-68
2021/07/16 10:53:29;;;;;;;3.30;1.83;;;;;;;28.17;49.61;99004.19;5036645;28;20025;-67
2021/07/16 10:55:54;;;;;;;2.55;1.98;;;;;;;27.24;50.16;98993.44;5048860;28;20367;-67
2021/07/16 10:58:23;;;;;;;7.07;2.00;;;;;;;26.24;53.04;98996.56;5030509;28;20091;-67
2021/07/16 11:00:58;;;;;;;2.92;2.15;;;;;;;25.47;54.37;98999.59;5031127;28;20283;-68
2021/07/16 11:03:47;;;;;;;3.00;2.38;;;;;;;24.90;56.10;98999.41;5047844;28;20059;-67
2021/07/16 11:06:14;;;;;;;2.63;2.40;;;;;;;24.34;58.16;98988.84;5030794;28;20089;-67
2021/07/16 11:08:40;;;;;;;8.02;2.10;;;;;;;24.35;59.78;99001.53;5048436;28;20060;-68
2021/07/16 11:11:14;;;;;;;2.45;2.10;;;;;;;24.39;58.70;99007.31;5047905;28;20502;-67
2021/07/16 11:13:54;;;;;;;3.08;2.08;;;;;;;24.01;60.74;99009.81;5047839;28;20068;-67
2021/07/16 11:16:24;;;;;;;3.58;2.10;;;;;;;23.78;62.52;99009.41;5048266;28;20067;-67
2021/07/16 11:18:53;;;;;;;4.05;2.33;;;;;;;23.98;60.15;98999.34;5048322;28;20025;-68
2021/07/16 11:21:38;;;;;;;;;;;;;;;23.93;60.07;99002.97;5047969;28;20467;-68
2021/07/16 11:24:03;;;;;;;2.55;1.73;;;;;;;24.51;61.09;99001.44;5045542;28;19916;-68
2021/07/16 11:26:31;;;;;;;2.88;1.85;;;;;;;25.04;58.04;98996.75;5048338;28;20361;-68